createdAt,value
2022-10-29T00:02:02.294Z,21.37
2022-10-29T00:07:09.973Z,21.63
2022-10-29T00:12:15.042Z,21.53
2022-10-29T00:17:19.932Z,23.53
2022-10-29T00:22:27.436Z,19.53
2022-10-29T00:27:32.228Z,20.00
2022-10-29T00:32:37.046Z,25.33
2022-10-29T00:37:44.508Z,18.47
2022-10-29T00:42:49.333Z,21.47
2022-10-29T00:47:56.032Z,28.67
2022-10-29T00:53:06.903Z,21.20
2022-10-29T00:58:13.393Z,18.27
2022-10-29T01:03:18.233Z,21.43
2022-10-29T01:08:26.055Z,22.40
2022-10-29T01:13:50.241Z,25.90
2022-10-29T01:19:04.424Z,20.30
2022-10-29T01:24:45.270Z,19.83
2022-10-29T01:30:06.646Z,22.20
2022-10-29T01:35:20.557Z,20.50
2022-10-29T01:40:29.535Z,25.63
2022-10-29T01:45:39.732Z,19.13
2022-10-29T01:50:52.775Z,25.50
2022-10-29T01:55:57.512Z,21.73
2022-10-29T02:01:13.195Z,24.17
2022-10-29T02:06:35.224Z,20.87
2022-10-29T02:11:49.851Z,20.20
2022-10-29T02:16:56.439Z,21.30
2022-10-29T02:22:03.783Z,20.20
2022-10-29T02:27:08.659Z,18.67
2022-10-29T02:32:13.511Z,19.40
2022-10-29T02:37:21.017Z,19.20
2022-10-29T02:42:25.957Z,21.93
2022-10-29T02:47:30.995Z,17.53
2022-10-29T02:52:38.463Z,19.20
2022-10-29T02:57:46.105Z,22.30
2022-10-29T03:02:54.244Z,24.83
2022-10-29T03:08:01.949Z,21.87
2022-10-29T03:13:06.754Z,21.50
2022-10-29T03:18:11.738Z,21.53
2022-10-29T03:23:19.064Z,19.57
2022-10-29T03:28:24.652Z,20.27
2022-10-29T03:33:29.662Z,26.00
2022-10-29T03:38:37.509Z,28.00
2022-10-29T03:43:42.671Z,28.97
2022-10-29T03:48:47.625Z,23.80
2022-10-29T03:53:55.074Z,22.40
2022-10-29T03:59:00.158Z,27.23
2022-10-29T04:04:04.971Z,23.47
2022-10-29T04:09:19.773Z,23.43
2022-10-29T04:14:25.045Z,25.23
2022-10-29T04:19:32.141Z,26.40
2022-10-29T04:30:10.275Z,26.00
2022-10-29T04:35:15.241Z,23.20
2022-10-29T04:40:26.186Z,22.57
2022-10-29T04:45:33.541Z,23.03
2022-10-29T04:50:40.987Z,21.70
2022-10-29T04:55:49.083Z,24.57
2022-10-29T05:00:53.870Z,26.03
2022-10-29T05:05:58.649Z,27.27
2022-10-29T05:11:08.906Z,27.97
2022-10-29T05:16:13.717Z,31.50
2022-10-29T05:21:18.587Z,28.63
2022-10-29T05:26:26.769Z,23.57
2022-10-29T05:31:33.091Z,28.20
2022-10-29T05:36:37.907Z,25.20
2022-10-29T05:41:45.459Z,27.40
2022-10-29T05:46:52.329Z,22.97
2022-10-29T05:51:57.479Z,22.33
2022-10-29T05:57:05.237Z,25.33
2022-10-29T06:02:11.937Z,25.47
2022-10-29T06:07:16.856Z,26.83
2022-10-29T06:12:24.237Z,24.77
2022-10-29T06:17:29.736Z,25.13
2022-10-29T06:22:34.653Z,19.13
2022-10-29T06:27:46.803Z,24.37
2022-10-29T06:32:51.813Z,24.37
2022-10-29T06:37:59.468Z,20.67
2022-10-29T06:43:09.783Z,25.43
2022-10-29T06:48:20.643Z,22.80
2022-10-29T06:53:27.300Z,22.63
2022-10-29T06:58:35.643Z,25.53
2022-10-29T07:03:40.636Z,21.50
2022-10-29T07:08:45.946Z,23.13
2022-10-29T07:13:55.598Z,24.67
2022-10-29T07:19:00.860Z,24.70
2022-10-29T07:24:05.923Z,22.30
2022-10-29T07:29:13.402Z,22.40
2022-10-29T07:34:18.400Z,18.90
2022-10-29T07:39:23.638Z,23.20
2022-10-29T07:44:31.169Z,19.43
2022-10-29T07:49:36.215Z,19.20
2022-10-29T07:54:41.233Z,17.47
2022-10-29T07:59:50.368Z,24.23
2022-10-29T08:04:55.380Z,18.57
2022-10-29T08:10:00.211Z,23.13
2022-10-29T08:15:12.033Z,18.90
2022-10-29T08:20:17.747Z,23.33
2022-10-29T08:25:23.215Z,16.27
2022-10-29T08:30:31.089Z,15.73
2022-10-29T08:35:38.966Z,17.40
2022-10-29T08:41:00.543Z,27.27
2022-10-29T08:46:18.196Z,33.33
2022-10-29T08:51:28.839Z,28.83
2022-10-29T08:56:42.378Z,26.27
2022-10-29T09:01:51.948Z,25.03
2022-10-29T09:07:22.854Z,22.23
2022-10-29T09:12:50.679Z,19.07
2022-10-29T09:18:14.411Z,24.10
2022-10-29T09:23:31.685Z,19.77
2022-10-29T09:28:46.964Z,15.97
2022-10-29T09:33:59.333Z,20.80
2022-10-29T09:39:15.772Z,21.23
2022-10-29T09:44:25.916Z,16.00
2022-10-29T09:49:48.539Z,15.70
2022-10-29T09:54:55.858Z,12.63
2022-10-29T10:00:04.565Z,16.20
2022-10-29T10:05:26.982Z,16.90
2022-10-29T10:10:32.144Z,12.23
2022-10-29T10:15:38.775Z,12.83
2022-10-29T10:20:51.052Z,15.23
2022-10-29T10:26:00.502Z,13.97
2022-10-29T10:31:17.073Z,14.97
2022-10-29T10:36:27.553Z,10.63
2022-10-29T10:41:36.992Z,16.47
2022-10-29T10:46:45.399Z,10.30
2022-10-29T10:51:56.593Z,12.90
2022-10-29T10:57:03.799Z,17.60
2022-10-29T11:02:17.041Z,13.37
2022-10-29T11:07:30.238Z,13.63
2022-10-29T11:12:39.954Z,12.60
2022-10-29T11:17:54.119Z,29.07
2022-10-29T11:23:17.350Z,16.23
2022-10-29T11:28:29.289Z,12.00
2022-10-29T11:33:44.930Z,13.57
2022-10-29T11:38:56.929Z,14.87
2022-10-29T11:44:01.918Z,12.57
2022-10-29T11:49:20.368Z,10.23
2022-10-29T11:54:40.606Z,12.73
2022-10-29T12:00:05.605Z,14.60
2022-10-29T12:05:36.429Z,17.43
2022-10-29T12:10:53.573Z,13.23
2022-10-29T12:16:17.018Z,13.87
2022-10-29T12:21:31.350Z,15.13
2022-10-29T12:26:46.228Z,14.00
2022-10-29T12:31:59.832Z,16.57
2022-10-29T12:37:14.174Z,19.40
2022-10-29T12:42:27.344Z,16.47
2022-10-29T12:47:38.167Z,16.60
2022-10-29T12:52:49.311Z,15.10
2022-10-29T12:57:57.423Z,18.23
2022-10-29T13:03:02.892Z,23.13
2022-10-29T13:08:28.000Z,21.90
2022-10-29T13:14:01.818Z,18.90
2022-10-29T13:19:21.669Z,17.40
2022-10-29T13:24:27.677Z,20.70
2022-10-29T13:30:15.626Z,19.73
2022-10-29T13:35:44.843Z,19.10
2022-10-29T13:41:18.265Z,21.47
2022-10-29T13:46:42.542Z,21.83
2022-10-29T13:52:00.550Z,21.87
2022-10-29T13:57:13.072Z,21.97
2022-10-29T14:02:33.415Z,27.93
2022-10-29T14:07:44.738Z,22.10
2022-10-29T14:12:52.353Z,27.13
2022-10-29T14:17:59.837Z,23.87
2022-10-29T14:23:12.019Z,22.07
2022-10-29T14:28:26.482Z,28.63
2022-10-29T14:33:36.775Z,21.13
2022-10-29T14:38:45.990Z,26.43
2022-10-29T14:43:55.727Z,23.20
2022-10-29T14:49:18.017Z,32.43
2022-10-29T14:54:30.386Z,28.17
2022-10-29T14:59:37.003Z,25.57
2022-10-29T15:04:53.257Z,26.60
2022-10-29T15:10:18.932Z,29.33
2022-10-29T15:15:33.380Z,28.10
2022-10-29T15:20:49.086Z,26.47
2022-10-29T15:25:56.395Z,23.93
2022-10-29T15:31:04.717Z,31.37
2022-10-29T15:36:12.619Z,26.63
2022-10-29T15:41:37.742Z,30.47
2022-10-29T15:46:53.455Z,32.33
2022-10-29T15:52:02.967Z,30.60
2022-10-29T15:57:08.329Z,33.13
2022-10-29T16:02:15.314Z,34.40
2022-10-29T16:07:23.060Z,32.73
2022-10-29T16:12:28.722Z,35.97
2022-10-29T16:17:33.765Z,42.47
2022-10-29T16:22:41.176Z,32.30
2022-10-29T16:27:48.424Z,35.57
2022-10-29T16:32:54.212Z,36.70
2022-10-29T16:38:01.801Z,34.50
2022-10-29T16:43:06.826Z,36.53
2022-10-29T16:48:11.668Z,44.70
2022-10-29T16:53:20.444Z,48.70
2022-10-29T16:58:29.662Z,40.30
2022-10-29T17:03:35.811Z,41.93
2022-10-29T17:08:43.315Z,40.47
2022-10-29T17:13:48.498Z,37.83
2022-10-29T17:18:53.439Z,38.10
2022-10-29T17:24:06.716Z,35.30
2022-10-29T17:29:13.215Z,36.43
2022-10-29T17:34:18.178Z,41.93
2022-10-29T17:39:25.893Z,38.43
2022-10-29T17:44:32.166Z,34.47
2022-10-29T17:49:37.089Z,33.63
2022-10-29T17:54:44.741Z,38.80
2022-10-29T17:59:49.586Z,33.73
2022-10-29T18:04:54.763Z,31.73
2022-10-29T18:10:02.192Z,44.97
2022-10-29T18:15:07.669Z,38.63
2022-10-29T18:20:13.580Z,36.60
2022-10-29T18:25:21.320Z,35.07
2022-10-29T18:30:29.925Z,36.17
2022-10-29T18:35:34.847Z,36.37
2022-10-29T18:40:42.521Z,33.93
2022-10-29T18:45:47.573Z,36.17
2022-10-29T18:50:53.214Z,34.60
2022-10-29T18:56:00.687Z,37.30
2022-10-29T19:01:11.014Z,35.63
2022-10-29T19:06:16.222Z,34.10
2022-10-29T19:11:25.961Z,33.63
2022-10-29T19:16:32.707Z,42.73
2022-10-29T19:21:39.672Z,41.43
2022-10-29T19:26:47.520Z,35.10
2022-10-29T19:31:52.328Z,32.67
2022-10-29T19:36:57.168Z,37.83
2022-10-29T19:42:04.944Z,34.13
2022-10-29T19:47:15.682Z,32.60
2022-10-29T19:52:21.510Z,33.43
2022-10-29T19:57:28.859Z,36.07
2022-10-29T20:02:34.061Z,35.47
2022-10-29T20:07:38.871Z,33.47
2022-10-29T20:12:46.285Z,37.07
2022-10-29T20:17:51.088Z,36.87
2022-10-29T20:22:56.203Z,31.67
2022-10-29T20:28:07.125Z,36.73
2022-10-29T20:33:11.989Z,31.60
2022-10-29T20:38:17.002Z,31.67
2022-10-29T20:43:24.494Z,33.90
2022-10-29T20:48:29.373Z,30.90
2022-10-29T20:53:34.185Z,28.20
2022-10-29T20:58:42.718Z,32.93
2022-10-29T21:03:48.185Z,29.20
2022-10-29T21:08:54.357Z,34.87
2022-10-29T21:14:02.080Z,34.03
2022-10-29T21:19:08.946Z,34.47
2022-10-29T21:24:13.824Z,36.23
2022-10-29T21:29:21.373Z,39.10
2022-10-29T21:34:26.421Z,30.37
2022-10-29T21:39:33.180Z,32.57
2022-10-29T21:44:40.601Z,32.37
2022-10-29T21:49:51.714Z,33.27
2022-10-29T21:54:56.943Z,31.73
2022-10-29T22:00:04.365Z,34.73
2022-10-29T22:05:10.562Z,34.57
2022-10-29T22:10:15.706Z,33.27
2022-10-29T22:15:25.357Z,32.07
2022-10-29T22:20:30.083Z,31.63
2022-10-29T22:25:34.845Z,37.77
2022-10-29T22:30:42.185Z,37.40
2022-10-29T22:35:46.922Z,31.67
2022-10-29T22:40:51.872Z,34.27
2022-10-29T22:45:59.545Z,31.10
2022-10-29T22:51:07.189Z,33.13
2022-10-29T22:56:15.540Z,37.50
2022-10-29T23:01:25.276Z,28.80
2022-10-29T23:06:31.258Z,27.17
2022-10-29T23:11:39.460Z,31.10
2022-10-29T23:16:47.198Z,29.23
2022-10-29T23:21:52.123Z,29.47
2022-10-29T23:26:57.026Z,30.80
2022-10-29T23:32:04.355Z,29.77
2022-10-29T23:37:10.155Z,32.87
2022-10-29T23:42:15.225Z,27.33
2022-10-29T23:47:22.620Z,29.03
2022-10-29T23:52:27.477Z,24.53
2022-10-29T23:57:32.326Z,28.63
